createdAt,value
2019-05-26T00:00:02.516Z,76843.71
2019-05-26T00:05:43.705Z,76841.72
2019-05-26T00:11:00.695Z,76859.69
2019-05-26T00:16:09.980Z,76860.69
2019-05-26T00:21:22.879Z,76876.66
2019-05-26T00:26:36.416Z,76888.64
2019-05-26T00:31:44.653Z,76879.66
2019-05-26T00:36:56.457Z,76881.66
2019-05-26T00:42:09.934Z,76901.63
2019-05-26T00:47:23.618Z,76911.61
2019-05-26T00:52:33.542Z,76906.61
2019-05-26T00:57:46.520Z,76900.63
2019-05-26T01:03:04.467Z,76916.59
2019-05-26T01:08:21.508Z,76916.59
2019-05-26T01:13:31.591Z,76904.62
2019-05-26T01:18:42.573Z,76920.59
2019-05-26T01:23:52.186Z,76935.56
2019-05-26T01:29:04.537Z,76950.55
2019-05-26T01:34:15.076Z,76962.52
2019-05-26T01:39:30.774Z,76979.50
2019-05-26T01:44:42.473Z,76973.51
2019-05-26T01:50:13.419Z,76977.50
2019-05-26T01:55:25.216Z,76970.52
2019-05-26T02:00:37.210Z,76947.55
2019-05-26T02:05:47.889Z,76949.55
2019-05-26T02:10:58.306Z,76937.56
2019-05-26T02:16:42.345Z,76951.55
2019-05-26T02:21:57.395Z,76965.52
2019-05-26T02:27:09.280Z,76963.52
2019-05-26T02:32:24.531Z,76967.52
2019-05-26T02:37:34.583Z,76980.50
2019-05-26T02:42:46.930Z,76992.48
2019-05-26T02:47:52.948Z,76990.48
2019-05-26T02:53:29.662Z,76988.48
2019-05-26T02:58:38.764Z,77008.45
2019-05-26T03:03:48.989Z,77014.45
2019-05-26T03:09:20.983Z,76989.48
2019-05-26T03:14:15.885Z,76881.66
2019-05-26T03:19:34.895Z,76903.62
2019-05-26T03:24:49.029Z,76907.61
2019-05-26T03:30:09.636Z,76921.59
2019-05-26T03:35:20.452Z,76923.59
2019-05-26T03:40:31.730Z,76933.57
2019-05-26T03:46:23.246Z,76929.58
2019-05-26T03:51:33.460Z,76909.61
2019-05-26T03:56:43.505Z,76889.64
2019-05-26T04:01:58.493Z,76866.67
2019-05-26T04:07:06.730Z,76849.70
2019-05-26T04:12:20.558Z,76846.70
2019-05-26T04:17:29.671Z,76846.70
2019-05-26T04:22:42.642Z,76845.70
2019-05-26T04:27:59.897Z,76839.72
2019-05-26T04:33:13.772Z,76839.72
2019-05-26T04:38:27.340Z,76827.73
2019-05-26T04:43:36.578Z,76825.74
2019-05-26T04:48:45.691Z,76815.76
2019-05-26T04:54:06.842Z,76804.77
2019-05-26T04:59:15.058Z,76767.83
2019-05-26T05:04:28.866Z,76737.88
2019-05-26T05:09:48.345Z,76691.95
2019-05-26T05:15:00.837Z,76653.02
2019-05-26T05:20:17.661Z,76654.02
2019-05-26T05:25:26.495Z,76666.99
2019-05-26T05:30:44.479Z,76662.00
2019-05-26T05:35:56.465Z,76635.05
2019-05-26T05:41:07.921Z,76593.11
2019-05-26T05:46:19.487Z,76570.16
2019-05-26T05:51:29.678Z,76550.19
2019-05-26T05:56:51.536Z,76528.22
2019-05-26T06:02:01.519Z,76492.28
2019-05-26T06:07:13.993Z,76450.35
2019-05-26T06:12:26.838Z,76422.40
2019-05-26T06:17:34.797Z,76452.34
2019-05-26T06:22:53.153Z,76450.35
2019-05-26T06:28:22.913Z,76463.33
2019-05-26T06:33:35.975Z,76412.42
2019-05-26T06:38:53.013Z,76384.47
2019-05-26T06:44:00.486Z,76368.48
2019-05-26T06:49:18.036Z,76354.52
2019-05-26T06:54:28.001Z,76348.52
2019-05-26T06:59:49.920Z,76343.53
2019-05-26T07:05:04.201Z,76324.56
2019-05-26T07:10:23.948Z,76292.63
2019-05-26T07:15:53.950Z,76270.66
2019-05-26T07:21:03.909Z,76262.67
2019-05-26T07:26:14.184Z,76212.76
2019-05-26T07:31:25.922Z,76197.78
2019-05-26T07:36:35.944Z,76228.73
2019-05-26T07:41:43.811Z,76207.77
2019-05-26T07:46:55.114Z,76151.86
2019-05-26T07:52:10.586Z,76086.98
2019-05-26T07:57:21.020Z,76051.05
2019-05-26T08:02:33.538Z,76024.09
2019-05-26T08:07:44.674Z,75999.14
2019-05-26T08:12:55.769Z,75964.20
2019-05-26T08:18:05.958Z,75929.27
2019-05-26T08:23:18.318Z,75884.34
2019-05-26T08:28:31.049Z,75880.34
2019-05-26T08:33:44.149Z,75885.34
2019-05-26T08:39:02.824Z,75805.48
2019-05-26T08:44:17.000Z,75766.56
2019-05-26T08:49:28.877Z,75820.46
2019-05-26T08:54:42.725Z,75812.47
2019-05-26T08:59:58.394Z,75788.52
2019-05-26T09:05:11.325Z,75770.55
2019-05-26T09:10:27.145Z,75750.59
2019-05-26T09:15:38.981Z,75699.69
2019-05-26T09:20:51.915Z,75623.83
2019-05-26T09:26:09.887Z,75650.77
2019-05-26T09:31:24.622Z,75592.88
2019-05-26T09:36:36.335Z,75577.91
2019-05-26T09:41:54.070Z,75577.91
2019-05-26T09:47:11.953Z,75568.93
2019-05-26T09:52:24.852Z,75545.97
2019-05-26T09:57:38.794Z,75551.96
2019-05-26T10:02:54.551Z,75534.00
2019-05-26T10:08:06.797Z,75513.03
2019-05-26T10:13:38.784Z,75448.16
2019-05-26T10:19:12.410Z,75426.20
2019-05-26T10:24:34.366Z,75394.27
2019-05-26T10:29:48.995Z,75408.23
2019-05-26T10:35:05.886Z,75362.33
2019-05-26T10:40:22.379Z,75304.44
2019-05-26T10:45:44.223Z,75294.46
2019-05-26T10:50:57.055Z,75307.44
2019-05-26T10:56:14.046Z,75239.57
2019-05-26T11:01:26.007Z,75190.66
2019-05-26T11:06:43.139Z,75277.49
2019-05-26T11:11:59.956Z,75291.47
2019-05-26T11:17:13.840Z,75340.38
2019-05-26T11:22:27.408Z,75410.23
2019-05-26T11:27:38.578Z,75478.10
2019-05-26T11:32:59.866Z,75472.11
2019-05-26T11:38:07.216Z,75478.10
2019-05-26T11:43:25.687Z,75472.11
2019-05-26T11:48:59.931Z,75485.09
2019-05-26T11:54:14.827Z,75485.09
2019-05-26T11:59:36.504Z,75504.05
2019-05-26T12:04:50.289Z,75484.09
2019-05-26T12:10:03.100Z,75410.23
2019-05-26T12:15:14.289Z,75423.20
2019-05-26T12:20:25.777Z,75398.26
2019-05-26T12:25:36.727Z,75466.13
2019-05-26T12:30:46.736Z,75354.34
2019-05-26T12:36:05.989Z,75349.35
2019-05-26T12:41:16.965Z,75382.28
2019-05-26T12:46:27.234Z,75346.36
2019-05-26T12:51:40.916Z,75319.41
2019-05-26T12:57:12.540Z,75258.53
2019-05-26T13:02:30.986Z,75243.56
2019-05-26T13:07:48.111Z,75223.60
2019-05-26T13:12:58.250Z,75212.63
2019-05-26T13:18:12.883Z,75186.67
2019-05-26T13:23:23.468Z,75165.72
2019-05-26T13:28:36.733Z,75266.52
2019-05-26T13:33:52.249Z,75330.39
2019-05-26T13:39:05.736Z,75354.34
2019-05-26T13:44:17.904Z,75366.31
2019-05-26T13:49:41.574Z,75381.29
2019-05-26T13:54:54.427Z,75367.31
2019-05-26T14:00:25.204Z,75317.41
2019-05-26T14:05:35.203Z,75275.50
2019-05-26T14:10:47.716Z,75233.58
2019-05-26T14:16:22.647Z,75203.64
2019-05-26T14:21:34.331Z,75192.66
2019-05-26T14:26:42.609Z,75176.69
2019-05-26T14:31:53.413Z,75187.67
2019-05-26T14:37:04.470Z,75211.63
2019-05-26T14:42:19.427Z,75220.61
2019-05-26T14:47:32.039Z,75202.64
2019-05-26T14:52:54.883Z,75190.66
2019-05-26T14:58:15.723Z,75166.71
2019-05-26T15:03:20.975Z,75178.69
2019-05-26T15:08:35.069Z,75156.73
2019-05-26T15:13:45.968Z,75113.82
2019-05-26T15:19:01.319Z,75128.79
2019-05-26T15:24:13.989Z,75122.80
2019-05-26T15:29:27.978Z,75099.84
2019-05-26T15:34:38.338Z,75124.80
2019-05-26T15:40:11.704Z,75068.91
2019-05-26T15:45:22.475Z,75100.84
2019-05-26T15:50:31.501Z,75175.70
2019-05-26T15:55:40.025Z,75174.70
2019-05-26T16:00:51.298Z,75206.63
2019-05-26T16:06:13.839Z,75264.52
2019-05-26T16:11:27.017Z,75287.47
2019-05-26T16:16:58.726Z,75312.42
2019-05-26T16:27:35.316Z,75268.51
2019-05-26T16:33:04.252Z,75290.47
2019-05-26T16:38:14.436Z,75244.56
2019-05-26T16:43:30.525Z,75301.45
2019-05-26T16:48:42.521Z,75340.38
2019-05-26T16:53:56.906Z,75336.38
2019-05-26T16:59:08.069Z,75325.40
2019-05-26T17:04:41.470Z,75292.46
2019-05-26T17:10:11.739Z,75327.39
2019-05-26T17:15:24.484Z,75324.41
2019-05-26T17:20:34.370Z,75287.47
2019-05-26T17:25:47.015Z,75261.53
2019-05-26T17:31:17.588Z,75261.53
2019-05-26T17:36:31.944Z,75318.41
2019-05-26T17:41:42.789Z,75388.28
2019-05-26T17:46:56.806Z,75420.22
2019-05-26T17:52:05.253Z,75434.19
2019-05-26T17:57:16.906Z,75456.14
2019-05-26T18:02:27.400Z,75469.12
2019-05-26T18:07:40.084Z,75476.11
2019-05-26T18:13:30.250Z,75483.09
2019-05-26T18:18:43.334Z,75486.09
2019-05-26T18:23:54.649Z,75512.04
2019-05-26T18:29:15.522Z,75570.92
2019-05-26T18:34:30.858Z,75604.86
2019-05-26T18:39:39.439Z,75641.80
2019-05-26T18:44:52.623Z,75642.79
2019-05-26T18:50:07.860Z,75641.80
2019-05-26T18:55:17.909Z,75652.77
2019-05-26T19:00:31.464Z,75649.78
2019-05-26T19:05:43.423Z,75663.75
2019-05-26T19:11:16.326Z,75673.73
2019-05-26T19:16:23.386Z,75679.72
2019-05-26T19:21:35.156Z,75683.71
2019-05-26T19:26:47.434Z,75685.70
2019-05-26T19:32:04.142Z,75705.67
2019-05-26T19:37:15.400Z,75661.75
2019-05-26T19:42:45.735Z,75711.66
2019-05-26T19:48:00.110Z,75726.63
2019-05-26T19:53:12.137Z,75765.56
2019-05-26T19:58:23.080Z,75766.56
2019-05-26T20:03:32.228Z,75770.55
2019-05-26T20:08:49.774Z,75766.56
2019-05-26T20:13:58.212Z,75773.55
2019-05-26T20:19:10.247Z,75781.53
2019-05-26T20:24:24.393Z,75794.51
2019-05-26T20:29:40.688Z,75787.52
2019-05-26T20:34:49.591Z,75787.52
2019-05-26T20:40:06.544Z,75788.52
2019-05-26T20:45:17.673Z,75801.49
2019-05-26T20:50:30.184Z,75804.48
2019-05-26T20:55:39.353Z,75816.47
2019-05-26T21:00:53.322Z,75817.47
2019-05-26T21:06:26.438Z,75821.45
2019-05-26T21:11:38.802Z,75841.42
2019-05-26T21:16:48.318Z,75847.41
2019-05-26T21:22:21.939Z,75862.38
2019-05-26T21:27:33.121Z,75852.41
2019-05-26T21:32:43.615Z,75856.39
2019-05-26T21:37:55.669Z,75873.36
2019-05-26T21:43:29.333Z,75969.19
2019-05-26T21:48:40.812Z,76030.08
2019-05-26T21:53:49.753Z,76055.03
2019-05-26T21:59:04.563Z,76070.01
2019-05-26T22:04:17.219Z,76080.98
2019-05-26T22:09:27.520Z,76044.05
2019-05-26T22:14:36.856Z,76088.98
2019-05-26T22:20:07.885Z,76103.95
2019-05-26T22:25:21.523Z,76114.93
2019-05-26T22:30:33.946Z,76130.91
2019-05-26T22:35:46.467Z,76150.86
2019-05-26T22:41:05.030Z,76156.86
2019-05-26T22:46:18.409Z,76165.84
2019-05-26T22:51:53.027Z,76188.80
2019-05-26T22:57:02.849Z,76194.79
2019-05-26T23:02:18.346Z,76208.77
2019-05-26T23:07:29.619Z,76202.78
2019-05-26T23:12:39.274Z,76192.80
2019-05-26T23:17:51.068Z,76184.80
2019-05-26T23:23:04.970Z,76193.79
2019-05-26T23:28:17.994Z,76180.81
2019-05-26T23:33:40.461Z,76193.79
2019-05-26T23:39:00.004Z,76172.83
2019-05-26T23:44:12.391Z,76178.81
2019-05-26T23:49:25.424Z,76164.84
2019-05-26T23:54:36.766Z,76174.83
2019-05-26T23:59:49.440Z,76183.81
